• Join FlightAware (Why Join?)
  • Login
  • US Flag 
Gobble Gobble! 
05:55AM EST


 

Airport Tracker/Info


-or-


 

Live Flight TrackerFlight Track Log ✈ AWI3704 ✈ 11-May-2013 ✈ KPHL - KALB

Flight Track Log - Related Links

Times and Time Zones

All times are in EDT time to prevent confusion due to time zone crossing. See the AWI3704 flight status page for this flight to view local times or setup timezone preferences in your user account.

Time Position Orientation Groundspeed Altitude Reporting Facility
EDT Latitude Longitude Course Direction KTS MPH feet Rate Location/Type
11:21AM 39.8667 -75.2667 37° Northeast 145 167 900  Level Philadelphia TRACON
11:22AM 39.8167 -75.3167 218° Southwest 192 221 3,500 2,520 Climbing Philadelphia TRACON
11:23AM 39.7833 -75.3000 159° South 254 292 6,000 2,040 Climbing Philadelphia TRACON
11:24AM 39.8167 -74.9202 90° East  Level FlightAware Approximate
11:25AM 39.8058 -74.8119 105° East  Level FlightAware Approximate
11:25AM 39.7847 -75.1336 89° East 300 345 9,000  Level New York Center
11:26AM 39.7844 -74.7054 105° East  Level FlightAware Approximate
11:26AM 39.7853 -75.0067 90° East 318 366 11,400  Level New York Center
11:27AM 39.8471 -74.6364 37° Northeast  Level FlightAware Approximate
11:27AM 39.7872 -74.8933 89° East 334 384 12,000  Level New York Center
11:28AM 39.7936 -74.7667 86° East 346 398 13,800 1,680 Climbing New York Center
11:29AM 39.8408 -74.6614 60° Northeast 338 389 15,400 1,500 Climbing New York Center
11:30AM 39.9247 -74.5875 34° Northeast 331 381 16,900 1,320 Climbing New York Center
11:31AM 40.0086 -74.5053 37° Northeast 346 398 18,100 1,320 Climbing New York Center
11:32AM 40.0947 -74.4206 37° Northeast 374 430 19,600 1,440 Climbing New York Center
11:33AM 40.1850 -74.3328 37° Northeast 385 443 21,000 1,380 Climbing New York Center
11:34AM 40.2731 -74.2422 38° Northeast 398 458 22,500 840 Climbing New York Center
11:36AM 40.5047 -74.0667 30° Northeast 404 465 24,000 420 Climbing Boston Center
11:37AM 40.6161 -73.9903 27° Northeast 404 465 24,000  Level Boston Center
11:38AM 40.7150 -73.9242 27° Northeast 409 471 24,000  Level Boston Center
11:39AM 40.8119 -73.8414 33° Northeast 409 471 24,000 -120 Level Boston Center
11:40AM 40.8944 -73.7389 43° Northeast 409 471 23,800 -540 Descending Boston Center
11:41AM 40.9536 -73.6603 45° Northeast 409 471 23,000 -420 Descending Boston Center
11:42AM 41.0694 -73.5414 38° Northeast 409 471 23,000 -780 Level Boston Center
11:43AM 41.1742 -73.5017 16° North 391 450 21,500 -1,500 Descending Boston Center
11:44AM 41.2767 -73.4619 16° North 384 442 20,000 -1,260 Descending Boston Center
11:45AM 41.3767 -73.4636 359° North 373 429 19,000 -540 Descending Boston Center
11:46AM 41.4661 -73.4706 357° North 359 413 19,000 -720 Level Boston Center
11:47AM 41.5764 -73.4836 355° North 359 413 17,600 -1,440 Descending Boston Center
11:48AM 41.6639 -73.4878 358° North 364 419 16,200 -1,500 Descending Boston Center
11:49AM 41.7661 -73.4978 356° North 347 399 14,600 -1,680 Descending Boston Center
11:50AM 41.8619 -73.5050 357° North 347 399 12,900 -1,560 Descending Boston Center
11:51AM 41.9533 -73.5147 355° North 338 389 11,500 -960 Descending Boston Center
11:52AM 42.0389 -73.5219 356° North 320 368 11,000 -300 Descending Boston Center
11:53AM 42.1242 -73.5261 358° North 309 356 11,000  Level Boston Center
11:54AM 42.2119 -73.5192 North 309 356 11,000 -600 Level Boston Center
11:55AM 42.2931 -73.5347 352° North 304 350 9,900 -1,080 Descending Boston Center
11:56AM 42.3742 -73.5444 355° North 298 343 8,900 -960 Descending Boston Center
11:57AM 42.4450 -73.5514 356° North 286 329 8,000 -1,020 Descending Boston Center
11:58AM 42.5281 -73.5697 351° North 275 316 6,900 -1,080 Descending Boston Center
12:00PM 42.6069 -73.6050 342° North 238 274 5,700 -1,020 Descending Boston Center
12:01PM 42.6672 -73.6261 346° North 225 259 4,700 -960 Descending Boston Center
12:01PM 42.7108 -73.6408 346° North 233 268 4,000 -960 Descending Boston Center
12:02PM 42.7792 -73.6706 342° North 228 262 3,000 -480 Descending Boston Center
12:04PM 42.8417 -73.6972 343° North 193 222 3,000 -420 Level Boston Center
12:04PM 42.8872 -73.7125 346° North 203 234 2,200 -600 Descending Boston Center
12:05PM 42.9075 -73.7667 297° West 179 206 2,000 -240 Descending Boston Center